createdAt,value
2023-02-14T00:00:10.231Z,29.50
2023-02-14T00:02:39.478Z,27.65
2023-02-14T00:05:09.280Z,34.10
2023-02-14T00:07:39.770Z,33.40
2023-02-14T00:10:10.225Z,41.30
2023-02-14T00:12:39.268Z,39.47
2023-02-14T00:15:23.704Z,40.30
2023-02-14T00:17:55.716Z,34.08
2023-02-14T00:20:25.093Z,40.85
2023-02-14T00:22:55.509Z,35.83
2023-02-14T00:25:24.653Z,31.52
2023-02-14T00:27:54.424Z,38.13
2023-02-14T00:30:23.744Z,27.70
2023-02-14T00:32:52.833Z,29.50
2023-02-14T00:35:21.762Z,36.33
2023-02-14T00:37:50.735Z,30.75
2023-02-14T00:40:23.147Z,26.45
2023-02-14T00:42:52.134Z,34.80
2023-02-14T00:45:21.107Z,29.58
2023-02-14T00:47:50.086Z,40.08
2023-02-14T00:50:21.026Z,44.33
2023-02-14T00:52:50.114Z,37.20
2023-02-14T00:55:19.604Z,40.63
2023-02-14T00:57:50.438Z,41.90
2023-02-14T01:00:20.503Z,45.80
2023-02-14T01:02:49.556Z,41.45
2023-02-14T01:05:18.803Z,40.22
2023-02-14T01:07:47.795Z,39.50
2023-02-14T01:10:16.920Z,39.42
2023-02-14T01:12:45.894Z,37.00
2023-02-14T01:15:16.314Z,29.45
2023-02-14T01:17:46.352Z,29.98
2023-02-14T01:20:16.102Z,31.73
2023-02-14T01:22:45.127Z,36.13
2023-02-14T01:25:15.383Z,41.47
2023-02-14T01:27:44.407Z,42.35
2023-02-14T01:30:18.086Z,41.65
2023-02-14T01:32:47.292Z,43.20
2023-02-14T01:35:16.367Z,41.90
2023-02-14T01:37:45.360Z,36.63
2023-02-14T01:40:15.808Z,47.10
2023-02-14T01:42:45.425Z,39.38
2023-02-14T01:45:21.540Z,54.60
2023-02-14T01:47:55.013Z,47.13
2023-02-14T01:50:31.253Z,42.45
2023-02-14T01:53:04.357Z,39.38
2023-02-14T01:55:37.938Z,36.50
2023-02-14T01:58:12.746Z,33.03
2023-02-14T02:01:00.728Z,28.38
2023-02-14T02:03:34.180Z,36.85
2023-02-14T02:06:12.356Z,31.73
2023-02-14T02:08:49.868Z,34.90
2023-02-14T02:11:18.834Z,32.88
2023-02-14T02:13:49.482Z,40.28
2023-02-14T02:16:43.593Z,37.78
2023-02-14T02:20:04.349Z,46.47
2023-02-14T02:23:20.647Z,37.03
2023-02-14T02:26:36.890Z,33.60
2023-02-14T02:29:34.391Z,38.40
2023-02-14T02:32:35.724Z,34.15
2023-02-14T02:35:38.494Z,33.35
2023-02-14T02:38:26.288Z,39.97
2023-02-14T02:41:06.091Z,34.28
2023-02-14T02:43:46.119Z,40.88
2023-02-14T02:46:43.246Z,45.00
2023-02-14T02:49:39.063Z,46.17
2023-02-14T02:52:33.192Z,48.53
2023-02-14T02:55:10.073Z,39.80
2023-02-14T02:57:41.175Z,46.33
2023-02-14T03:00:13.780Z,42.10
2023-02-14T03:03:05.649Z,41.55
2023-02-14T03:05:36.623Z,41.55
2023-02-14T03:08:07.306Z,41.03
2023-02-14T03:10:40.598Z,35.17
2023-02-14T03:13:44.188Z,41.58
2023-02-14T03:16:33.289Z,40.15
2023-02-14T03:19:55.172Z,38.40
2023-02-14T03:22:42.220Z,40.17
2023-02-14T03:25:32.900Z,36.97
2023-02-14T03:28:13.243Z,42.63
2023-02-14T03:30:50.849Z,35.75
2023-02-14T03:33:28.093Z,38.50
2023-02-14T03:36:04.671Z,36.92
2023-02-14T03:38:42.272Z,35.65
2023-02-14T03:41:19.204Z,41.22
2023-02-14T03:43:53.607Z,32.20
2023-02-14T03:46:29.260Z,42.83
2023-02-14T03:49:04.907Z,35.47
2023-02-14T03:51:35.754Z,34.20
2023-02-14T03:54:08.856Z,34.42
2023-02-14T03:56:43.186Z,43.78
2023-02-14T03:59:16.755Z,36.42
2023-02-14T04:01:52.614Z,42.58
2023-02-14T04:04:26.707Z,40.55
2023-02-14T04:06:56.135Z,41.63
2023-02-14T04:09:25.258Z,38.08
2023-02-14T04:11:55.653Z,36.50
2023-02-14T04:14:26.825Z,43.00
2023-02-14T04:17:13.176Z,36.92
2023-02-14T04:19:42.365Z,37.63
2023-02-14T04:22:11.660Z,36.22
2023-02-14T04:24:40.621Z,35.88
2023-02-14T04:27:11.154Z,34.50
2023-02-14T04:29:41.920Z,35.80
2023-02-14T04:32:14.797Z,37.90
2023-02-14T04:34:44.187Z,35.10
2023-02-14T04:37:13.653Z,32.97
2023-02-14T04:39:42.648Z,31.58
2023-02-14T04:42:13.077Z,31.92
2023-02-14T04:44:42.246Z,30.05
2023-02-14T04:47:11.615Z,32.42
2023-02-14T04:49:40.583Z,33.33
2023-02-14T04:52:09.867Z,35.10
2023-02-14T04:54:38.910Z,43.50
2023-02-14T04:57:08.113Z,31.75
2023-02-14T04:59:38.663Z,36.88
2023-02-14T05:02:07.748Z,37.55
2023-02-14T05:04:36.815Z,44.53
2023-02-14T05:07:06.017Z,43.80
2023-02-14T05:09:35.083Z,41.85
2023-02-14T05:12:04.316Z,43.45
2023-02-14T05:14:33.419Z,44.88
2023-02-14T05:17:03.908Z,41.80
2023-02-14T05:19:32.924Z,47.35
2023-02-14T05:22:02.347Z,39.90
2023-02-14T05:24:31.755Z,45.35
2023-02-14T05:27:00.938Z,42.78
2023-02-14T05:29:30.692Z,40.60
2023-02-14T05:31:59.840Z,37.78
2023-02-14T05:34:30.619Z,40.85
2023-02-14T05:36:59.960Z,37.22
2023-02-14T05:39:29.088Z,39.92
2023-02-14T05:41:59.418Z,40.10
2023-02-14T05:44:28.902Z,36.38
2023-02-14T05:46:58.269Z,37.88
2023-02-14T05:49:27.602Z,41.40
2023-02-14T05:51:58.388Z,35.47
2023-02-14T05:54:27.620Z,35.97
2023-02-14T05:56:56.876Z,43.28
2023-02-14T05:59:26.325Z,38.30
2023-02-14T06:01:55.766Z,48.75
2023-02-14T06:04:25.340Z,46.70
2023-02-14T06:06:55.503Z,41.83
2023-02-14T06:09:26.960Z,46.88
2023-02-14T06:11:56.597Z,41.95
2023-02-14T06:14:26.660Z,41.72
2023-02-14T06:16:56.627Z,40.38
2023-02-14T06:19:28.596Z,42.85
2023-02-14T06:21:58.204Z,43.58
2023-02-14T06:24:29.550Z,44.08
2023-02-14T06:27:02.006Z,39.92
2023-02-14T06:29:31.775Z,38.05
2023-02-14T06:32:06.234Z,36.05
2023-02-14T06:34:36.760Z,42.03
2023-02-14T06:37:06.596Z,39.50
2023-02-14T06:39:38.261Z,36.40
2023-02-14T06:42:08.114Z,39.72
2023-02-14T06:44:40.115Z,42.50
2023-02-14T06:47:10.254Z,35.67
2023-02-14T06:49:40.166Z,38.35
2023-02-14T06:52:14.118Z,36.65
2023-02-14T06:54:49.089Z,38.33
2023-02-14T06:57:18.891Z,38.38
2023-02-14T06:59:48.757Z,34.83
2023-02-14T07:02:18.725Z,36.83
2023-02-14T07:04:49.857Z,38.13
2023-02-14T07:07:19.876Z,35.42
2023-02-14T07:09:51.883Z,35.78
2023-02-14T07:12:21.961Z,42.90
2023-02-14T07:14:53.046Z,36.63
2023-02-14T07:17:22.888Z,32.65
2023-02-14T07:19:52.584Z,35.53
2023-02-14T07:22:22.681Z,43.03
2023-02-14T07:24:54.163Z,35.50
2023-02-14T07:27:23.883Z,35.22
2023-02-14T07:29:53.957Z,41.97
2023-02-14T07:32:24.124Z,39.00
2023-02-14T07:34:54.012Z,34.80
2023-02-14T07:37:23.846Z,40.33
2023-02-14T07:39:55.213Z,30.33
2023-02-14T07:42:25.155Z,34.05
2023-02-14T07:44:56.092Z,35.40
2023-02-14T07:47:26.285Z,36.33
2023-02-14T07:49:56.093Z,36.25
2023-02-14T07:52:25.937Z,37.58
2023-02-14T07:54:57.165Z,31.75
2023-02-14T07:57:26.438Z,34.28
2023-02-14T07:59:58.244Z,35.13
2023-02-14T08:02:27.957Z,36.70
2023-02-14T08:04:57.729Z,28.70
2023-02-14T08:07:27.549Z,34.17
2023-02-14T08:09:58.759Z,49.20
2023-02-14T08:12:46.247Z,45.47
2023-02-14T08:15:34.257Z,35.00
2023-02-14T08:18:03.831Z,40.50
2023-02-14T08:20:33.000Z,33.38
2023-02-14T08:23:02.739Z,28.40
2023-02-14T08:25:33.828Z,29.02
2023-02-14T08:28:05.173Z,27.15
2023-02-14T08:30:37.690Z,33.95
2023-02-14T08:33:07.479Z,31.20
2023-02-14T08:35:38.158Z,30.20
2023-02-14T08:38:09.095Z,31.27
2023-02-14T08:40:40.407Z,29.63
2023-02-14T08:43:11.476Z,25.33
2023-02-14T08:45:42.913Z,28.13
2023-02-14T08:48:14.084Z,31.75
2023-02-14T08:50:43.825Z,25.90
2023-02-14T08:53:14.998Z,24.88
2023-02-14T08:55:45.563Z,26.95
2023-02-14T08:58:14.881Z,24.85
2023-02-14T09:00:43.978Z,29.40
2023-02-14T09:03:13.470Z,23.73
2023-02-14T09:05:43.095Z,25.65
2023-02-14T09:08:12.206Z,31.63
2023-02-14T09:10:41.222Z,24.67
2023-02-14T09:13:11.606Z,23.85
2023-02-14T09:15:40.626Z,22.55
2023-02-14T09:18:09.569Z,22.23
2023-02-14T09:20:38.674Z,28.45
2023-02-14T09:23:07.606Z,28.17
2023-02-14T09:25:36.679Z,24.50
2023-02-14T09:28:05.877Z,24.52
2023-02-14T09:30:36.298Z,25.48
2023-02-14T09:33:05.471Z,21.23
2023-02-14T09:35:34.490Z,23.15
2023-02-14T09:38:03.707Z,24.17
2023-02-14T09:40:34.780Z,23.38
2023-02-14T09:43:14.431Z,20.20
2023-02-14T09:45:54.484Z,24.77
2023-02-14T09:48:31.136Z,23.25
2023-02-14T09:51:05.089Z,22.02
2023-02-14T09:53:36.889Z,23.77
2023-02-14T09:56:13.516Z,20.20
2023-02-14T09:58:54.217Z,17.63
2023-02-14T10:01:31.018Z,23.08
2023-02-14T10:04:21.325Z,26.60
2023-02-14T10:06:58.478Z,19.27
2023-02-14T10:10:01.925Z,16.85
2023-02-14T10:12:36.802Z,20.80
2023-02-14T10:15:16.371Z,19.02
2023-02-14T10:17:52.672Z,16.80
2023-02-14T10:20:27.535Z,18.92
2023-02-14T10:23:05.117Z,16.42
2023-02-14T10:25:45.145Z,18.00
2023-02-14T10:28:18.903Z,17.42
2023-02-14T10:31:01.673Z,17.75
2023-02-14T10:33:36.360Z,17.15
2023-02-14T10:36:16.181Z,19.50
2023-02-14T10:38:56.629Z,17.90
2023-02-14T10:41:37.886Z,16.63
2023-02-14T10:44:27.418Z,19.98
2023-02-14T10:47:03.761Z,20.25
2023-02-14T10:49:47.130Z,18.80
2023-02-14T10:52:25.192Z,18.55
2023-02-14T10:54:59.680Z,18.48
2023-02-14T10:57:33.531Z,16.65
2023-02-14T11:00:07.368Z,18.52
2023-02-14T11:02:41.459Z,19.02
2023-02-14T11:05:27.553Z,19.27
2023-02-14T11:07:59.042Z,17.65
2023-02-14T11:10:32.049Z,17.20
2023-02-14T11:13:01.290Z,16.50
2023-02-14T11:15:34.784Z,18.42
2023-02-14T11:18:21.935Z,19.08
2023-02-14T11:21:04.263Z,18.93
2023-02-14T11:23:42.442Z,19.80
2023-02-14T11:26:23.618Z,18.77
2023-02-14T11:28:57.896Z,19.35
2023-02-14T11:31:32.725Z,17.40
2023-02-14T11:34:05.017Z,17.70
2023-02-14T11:36:43.105Z,14.43
2023-02-14T11:39:31.555Z,17.05
2023-02-14T11:42:04.605Z,18.27
2023-02-14T11:44:37.375Z,16.60
2023-02-14T11:47:28.233Z,18.98
2023-02-14T11:50:01.279Z,19.30
2023-02-14T11:52:32.219Z,14.57
2023-02-14T11:55:02.434Z,18.48
2023-02-14T11:57:36.673Z,21.98
2023-02-14T12:00:18.698Z,19.35
2023-02-14T12:02:50.876Z,18.08
2023-02-14T12:05:24.772Z,23.73
2023-02-14T12:07:58.136Z,18.38
2023-02-14T12:10:29.783Z,19.17
2023-02-14T12:13:02.657Z,18.27
2023-02-14T12:15:37.809Z,16.38
2023-02-14T12:18:51.685Z,17.33
2023-02-14T12:21:45.607Z,16.25
2023-02-14T12:24:24.955Z,18.13
2023-02-14T12:27:02.792Z,17.23
2023-02-14T12:29:37.646Z,16.20
2023-02-14T12:32:24.912Z,15.57
2023-02-14T12:35:01.936Z,16.13
2023-02-14T12:37:50.789Z,15.20
2023-02-14T12:40:36.615Z,15.73
2023-02-14T12:43:35.368Z,17.30
2023-02-14T12:46:30.079Z,18.17
2023-02-14T12:49:30.462Z,16.88
2023-02-14T12:52:14.797Z,19.75
2023-02-14T12:54:59.068Z,17.67
2023-02-14T12:57:43.692Z,15.85
2023-02-14T13:00:27.829Z,21.17
2023-02-14T13:03:41.791Z,15.25
2023-02-14T13:06:19.795Z,16.35
2023-02-14T13:09:06.809Z,16.60
2023-02-14T13:11:44.641Z,17.50
2023-02-14T13:14:39.878Z,18.48
2023-02-14T13:17:20.444Z,18.50
2023-02-14T13:20:01.880Z,15.43
2023-02-14T13:22:33.884Z,16.33
2023-02-14T13:25:11.476Z,17.85
2023-02-14T13:30:23.730Z,14.27
2023-02-14T13:32:55.589Z,17.80
2023-02-14T13:35:27.923Z,16.10
2023-02-14T13:38:01.777Z,12.77
2023-02-14T13:40:32.324Z,19.05
2023-02-14T13:43:02.938Z,14.27
2023-02-14T13:45:56.313Z,13.93
2023-02-14T13:48:27.653Z,13.23
2023-02-14T13:51:00.348Z,14.07
2023-02-14T13:53:40.139Z,13.60
2023-02-14T13:56:35.021Z,14.38
2023-02-14T13:59:07.258Z,13.40
2023-02-14T14:01:42.238Z,15.32
2023-02-14T14:04:36.756Z,12.45
2023-02-14T14:07:27.152Z,15.25
2023-02-14T14:10:03.200Z,14.02
2023-02-14T14:12:45.715Z,14.80
2023-02-14T14:15:20.695Z,15.93
2023-02-14T14:18:37.148Z,15.10
2023-02-14T14:21:17.544Z,12.82
2023-02-14T14:23:46.590Z,14.13
2023-02-14T14:26:40.550Z,13.70
2023-02-14T14:29:19.337Z,12.93
2023-02-14T14:31:55.464Z,12.27
2023-02-14T14:34:29.525Z,12.95
2023-02-14T14:37:06.650Z,11.70
2023-02-14T14:39:39.896Z,11.65
2023-02-14T14:42:14.862Z,13.80
2023-02-14T14:44:50.822Z,11.77
2023-02-14T14:47:24.424Z,11.80
2023-02-14T14:50:00.304Z,12.02
2023-02-14T14:52:37.925Z,13.73
2023-02-14T14:55:17.932Z,9.52
2023-02-14T14:57:52.065Z,10.90
2023-02-14T15:00:28.787Z,12.57
2023-02-14T15:03:01.915Z,10.93
2023-02-14T15:05:36.169Z,11.77
2023-02-14T15:08:23.360Z,11.18
2023-02-14T15:10:56.764Z,12.48
2023-02-14T15:13:50.819Z,12.55
2023-02-14T15:16:23.278Z,11.07
2023-02-14T15:18:55.385Z,13.30
2023-02-14T15:21:26.478Z,11.18
2023-02-14T15:23:55.936Z,14.75
2023-02-14T15:26:31.587Z,15.77
2023-02-14T15:29:03.032Z,18.98
2023-02-14T15:31:42.436Z,14.68
2023-02-14T15:34:14.783Z,12.50
2023-02-14T15:36:52.316Z,22.75
2023-02-14T15:39:27.271Z,24.63
2023-02-14T15:41:56.943Z,28.85
2023-02-14T15:44:27.811Z,26.90
2023-02-14T15:47:02.472Z,29.48
2023-02-14T15:49:38.299Z,29.67
2023-02-14T15:52:08.998Z,32.38
2023-02-14T15:54:43.042Z,30.25
2023-02-14T15:57:25.652Z,30.23
2023-02-14T15:59:55.171Z,29.60
2023-02-14T16:02:34.315Z,30.90
2023-02-14T16:05:16.740Z,29.63
2023-02-14T16:08:00.165Z,32.83
2023-02-14T16:10:31.582Z,33.08
2023-02-14T16:13:04.193Z,35.75
2023-02-14T16:15:34.728Z,35.97
2023-02-14T16:18:08.203Z,38.83
2023-02-14T16:20:46.964Z,34.30
2023-02-14T16:23:21.611Z,35.72
2023-02-14T16:25:51.658Z,34.70
2023-02-14T16:28:21.628Z,38.58
2023-02-14T16:30:57.549Z,42.67
2023-02-14T16:33:30.643Z,35.35
2023-02-14T16:36:06.457Z,38.50
2023-02-14T16:38:42.801Z,37.53
2023-02-14T16:41:20.135Z,41.55
2023-02-14T16:46:22.015Z,36.45
2023-02-14T16:48:52.615Z,39.65
2023-02-14T16:51:24.832Z,38.97
2023-02-14T16:53:57.052Z,36.53
2023-02-14T16:56:31.070Z,44.22
2023-02-14T16:59:00.252Z,39.15
2023-02-14T17:01:29.228Z,48.08
2023-02-14T17:03:58.369Z,39.20
2023-02-14T17:06:32.434Z,44.53
2023-02-14T17:09:08.227Z,42.25
2023-02-14T17:11:41.275Z,41.15
2023-02-14T17:14:13.459Z,47.55
2023-02-14T17:16:43.760Z,53.83
2023-02-14T17:19:13.706Z,60.50
2023-02-14T17:21:43.163Z,55.22
2023-02-14T17:24:13.608Z,56.75
2023-02-14T17:26:45.582Z,51.72
2023-02-14T17:29:15.227Z,53.42
2023-02-14T17:31:44.935Z,52.53
2023-02-14T17:34:14.090Z,48.33
2023-02-14T17:36:44.163Z,47.70
2023-02-14T17:39:15.471Z,46.45
2023-02-14T17:41:44.520Z,46.35
2023-02-14T17:44:14.512Z,52.55
2023-02-14T17:46:43.867Z,51.03
2023-02-14T17:49:13.271Z,50.15
2023-02-14T17:51:42.642Z,47.40
2023-02-14T17:54:12.524Z,46.53
2023-02-14T17:56:43.264Z,45.35
2023-02-14T17:59:12.483Z,41.97
2023-02-14T18:01:42.138Z,40.90
2023-02-14T18:04:11.159Z,46.72
2023-02-14T18:06:40.415Z,46.33
2023-02-14T18:09:09.591Z,42.42
2023-02-14T18:11:42.225Z,37.88
2023-02-14T18:14:18.573Z,46.05
2023-02-14T18:16:48.040Z,43.25
2023-02-14T18:19:17.643Z,32.65
2023-02-14T18:21:47.241Z,29.52
2023-02-14T18:24:16.356Z,30.83
2023-02-14T18:26:45.817Z,32.47
2023-02-14T18:29:16.231Z,32.50
2023-02-14T18:31:46.269Z,29.25
2023-02-14T18:34:15.838Z,33.70
2023-02-14T18:36:44.913Z,33.80
2023-02-14T18:39:14.426Z,36.85
2023-02-14T18:41:43.459Z,37.05
2023-02-14T18:44:14.951Z,38.38
2023-02-14T18:46:43.975Z,33.75
2023-02-14T18:49:13.634Z,34.47
2023-02-14T18:51:43.707Z,34.15
2023-02-14T18:54:13.836Z,36.30
2023-02-14T18:56:44.013Z,32.13
2023-02-14T18:59:14.478Z,40.53
2023-02-14T19:01:47.363Z,35.20
2023-02-14T19:04:18.055Z,41.65
2023-02-14T19:06:47.758Z,41.50
2023-02-14T19:09:18.864Z,41.63
2023-02-14T19:11:49.212Z,49.45
2023-02-14T19:14:20.312Z,46.15
2023-02-14T19:16:53.485Z,44.00
2023-02-14T19:19:23.416Z,44.10
2023-02-14T19:21:53.377Z,46.03
2023-02-14T19:24:26.722Z,51.40
2023-02-14T19:26:57.080Z,46.70
2023-02-14T19:29:27.624Z,54.65
2023-02-14T19:32:01.184Z,45.50
2023-02-14T19:34:32.707Z,53.42
2023-02-14T19:37:03.184Z,49.80
2023-02-14T19:39:33.697Z,48.35
2023-02-14T19:42:04.410Z,51.75
2023-02-14T19:44:33.840Z,46.05
2023-02-14T19:47:18.970Z,46.78
2023-02-14T19:49:55.003Z,47.00
2023-02-14T19:52:26.803Z,49.00
2023-02-14T19:54:58.939Z,55.53
2023-02-14T19:57:28.043Z,51.97
2023-02-14T19:59:57.429Z,53.83
2023-02-14T20:02:28.024Z,57.78
2023-02-14T20:05:04.342Z,57.13
2023-02-14T20:07:34.521Z,56.40
2023-02-14T20:10:04.851Z,57.05
2023-02-14T20:12:33.978Z,54.33
2023-02-14T20:15:03.883Z,53.20
2023-02-14T20:17:35.232Z,54.88
2023-02-14T20:20:06.587Z,59.38
2023-02-14T20:22:36.452Z,66.10
2023-02-14T20:25:06.908Z,65.63
2023-02-14T20:27:37.200Z,67.28
2023-02-14T20:30:09.609Z,77.22
2023-02-14T20:32:40.955Z,87.78
2023-02-14T20:35:10.987Z,85.38
2023-02-14T20:37:40.631Z,73.88
2023-02-14T20:40:14.173Z,71.82
2023-02-14T20:42:45.991Z,67.95
2023-02-14T20:45:17.735Z,70.57
2023-02-14T20:47:51.119Z,57.67
2023-02-14T20:50:21.899Z,59.28
2023-02-14T20:52:52.335Z,68.68
2023-02-14T20:55:24.612Z,70.80
2023-02-14T20:57:54.805Z,70.28
2023-02-14T21:00:26.202Z,72.05
2023-02-14T21:02:57.215Z,78.68
2023-02-14T21:05:27.246Z,73.80
2023-02-14T21:07:57.158Z,77.45
2023-02-14T21:10:27.769Z,68.05
2023-02-14T21:12:59.442Z,66.18
2023-02-14T21:15:28.822Z,60.70
2023-02-14T21:17:59.647Z,67.75
2023-02-14T21:20:28.884Z,70.00
2023-02-14T21:22:58.358Z,61.10
2023-02-14T21:25:27.443Z,67.45
2023-02-14T21:27:56.446Z,62.10
2023-02-14T21:30:30.888Z,72.03
2023-02-14T21:33:01.346Z,64.55
2023-02-14T21:35:30.388Z,62.95
2023-02-14T21:38:00.130Z,62.95
2023-02-14T21:40:29.138Z,67.68
2023-02-14T21:42:58.174Z,82.63
2023-02-14T21:45:44.777Z,71.00
2023-02-14T21:48:33.470Z,66.30
2023-02-14T21:51:06.733Z,69.18
2023-02-14T21:53:35.834Z,68.35
2023-02-14T21:56:07.314Z,65.93
2023-02-14T21:58:36.336Z,64.20
2023-02-14T22:01:05.642Z,74.22
2023-02-14T22:03:36.197Z,68.60
2023-02-14T22:06:07.315Z,72.82
2023-02-14T22:08:36.344Z,74.40
2023-02-14T22:11:07.831Z,65.07
2023-02-14T22:13:39.040Z,67.05
2023-02-14T22:16:11.638Z,71.47
2023-02-14T22:18:43.103Z,67.80
2023-02-14T22:21:19.043Z,81.38
2023-02-14T22:23:50.401Z,77.20
2023-02-14T22:26:22.975Z,70.88
2023-02-14T22:28:55.881Z,78.65
2023-02-14T22:31:26.686Z,67.47
2023-02-14T22:33:57.169Z,76.97
2023-02-14T22:36:26.317Z,72.47
2023-02-14T22:38:55.355Z,76.55
2023-02-14T22:41:26.752Z,66.15
2023-02-14T22:43:56.379Z,66.82
2023-02-14T22:46:28.016Z,68.05
2023-02-14T22:48:58.957Z,71.38
2023-02-14T22:51:30.209Z,65.15
2023-02-14T22:54:02.167Z,69.35
2023-02-14T22:56:34.361Z,71.32
2023-02-14T22:59:06.430Z,61.38
2023-02-14T23:01:37.106Z,64.90
2023-02-14T23:04:07.789Z,66.38
2023-02-14T23:06:38.289Z,61.85
2023-02-14T23:09:09.913Z,63.60
2023-02-14T23:11:41.875Z,66.18
2023-02-14T23:14:30.815Z,65.15
2023-02-14T23:17:17.891Z,62.63
2023-02-14T23:20:06.765Z,56.53
2023-02-14T23:22:38.541Z,68.40
2023-02-14T23:25:11.546Z,64.60
2023-02-14T23:27:44.108Z,62.05
2023-02-14T23:30:16.075Z,61.58
2023-02-14T23:32:45.579Z,61.72
2023-02-14T23:35:16.008Z,62.60
2023-02-14T23:37:45.016Z,59.13
2023-02-14T23:40:14.399Z,64.05
2023-02-14T23:42:43.525Z,63.50
2023-02-14T23:45:30.194Z,58.85
2023-02-14T23:48:03.426Z,61.58
2023-02-14T23:50:33.829Z,64.55
2023-02-14T23:53:02.860Z,67.65
2023-02-14T23:55:32.389Z,61.55
2023-02-14T23:58:01.568Z,65.75
